Time;durP1;ratioP1;P1;durP2;ratioP2;P2;SDS_P1;SDS_P2;PMS_P1;PMS_P2;Temp;Humidity;BMP_temperature;BMP_pressure;BME280_temperature;BME280_humidity;BME280_pressure;Samples;Min_cycle;Max_cycle;Signal;HPM_P1;HPM_P2
2022/12/20 00:01:32;;;;;;;6.22;5.15;;;9.20;99.90;;;;;;5085010;28;20045;-37
2022/12/20 00:04:01;;;;;;;5.63;4.88;;;9.20;99.90;;;;;;5086787;28;20061;-37
2022/12/20 00:06:27;;;;;;;7.28;5.28;;;9.20;99.90;;;;;;5070904;28;20074;-38
2022/12/20 00:08:58;;;;;;;6.95;4.93;;;9.10;99.90;;;;;;5082856;28;20032;-38
2022/12/20 00:11:25;;;;;;;8.98;4.97;;;9.10;99.90;;;;;;5076750;28;20063;-38
2022/12/20 00:13:51;;;;;;;6.43;5.00;;;9.10;99.90;;;;;;5088564;28;20119;-37
2022/12/20 00:16:20;;;;;;;7.53;5.03;;;9.00;99.90;;;;;;5075900;28;20044;-37
2022/12/20 00:18:49;;;;;;;5.55;5.00;;;9.00;99.90;;;;;;5079096;28;20505;-37
2022/12/20 00:21:15;;;;;;;7.43;5.00;;;9.10;99.90;;;;;;5088931;28;20044;-37
2022/12/20 00:23:41;;;;;;;6.20;4.85;;;9.10;99.90;;;;;;5080986;28;20044;-38
2022/12/20 00:26:12;;;;;;;5.22;4.70;;;9.10;99.90;;;;;;5072178;28;20032;-37
2022/12/20 00:28:39;;;;;;;7.72;5.25;;;9.10;99.90;;;;;;5086001;28;20037;-38
2022/12/20 00:31:07;;;;;;;6.30;5.15;;;9.10;99.90;;;;;;5088107;28;20403;-37
2022/12/20 00:33:34;;;;;;;6.75;4.72;;;9.10;99.90;;;;;;5069891;28;20685;-37
2022/12/20 00:36:00;;;;;;;6.40;5.10;;;9.10;99.90;;;;;;5084887;28;20040;-37
2022/12/20 00:38:26;;;;;;;6.75;5.15;;;9.20;99.90;;;;;;5063903;28;20041;-37
2022/12/20 00:41:03;;;;;;;8.23;5.38;;;9.20;99.90;;;;;;5071539;28;20186;-37
2022/12/20 00:43:29;;;;;;;5.22;4.72;;;9.20;99.90;;;;;;5087489;28;20033;-38
2022/12/20 00:45:55;;;;;;;6.82;5.03;;;9.20;99.90;;;;;;5083252;28;20064;-38
2022/12/20 00:48:23;;;;;;;5.93;5.22;;;9.20;99.90;;;;;;5072009;28;20037;-38
2022/12/20 00:50:49;;;;;;;6.82;5.35;;;9.20;99.90;;;;;;5084337;28;20098;-38
2022/12/20 00:53:15;;;;;;;7.75;5.50;;;9.20;99.90;;;;;;5068912;28;20044;-38
2022/12/20 00:55:42;;;;;;;7.15;5.40;;;9.20;99.90;;;;;;5080813;28;20043;-37
2022/12/20 00:58:09;;;;;;;7.90;5.60;;;9.20;99.90;;;;;;5062402;28;20033;-38
2022/12/20 01:00:35;;;;;;;7.38;5.50;;;9.10;99.90;;;;;;5076732;28;20059;-38
2022/12/20 01:03:01;;;;;;;6.47;5.40;;;9.10;99.90;;;;;;5071687;28;20547;-37
2022/12/20 01:05:26;;;;;;;6.43;5.82;;;9.00;99.90;;;;;;5071539;28;20025;-38
2022/12/20 01:07:52;;;;;;;8.13;6.05;;;9.00;99.90;;;;;;5088054;28;20068;-38
2022/12/20 01:10:18;;;;;;;6.22;5.55;;;9.00;99.90;;;;;;5083919;28;20063;-37
2022/12/20 01:12:44;;;;;;;8.57;5.82;;;9.00;99.90;;;;;;5086028;28;20494;-38
2022/12/20 01:15:10;;;;;;;6.60;5.30;;;8.90;99.90;;;;;;5087554;28;20048;-37
2022/12/20 01:17:36;;;;;;;6.32;5.10;;;8.90;99.90;;;;;;5086418;28;20074;-38
2022/12/20 01:20:02;;;;;;;5.28;4.78;;;8.90;99.90;;;;;;5087735;28;20087;-38
2022/12/20 01:22:28;;;;;;;6.75;4.95;;;8.90;99.90;;;;;;5063144;28;20041;-37
2022/12/20 01:24:54;;;;;;;6.60;5.60;;;8.80;99.90;;;;;;5084125;28;20064;-38
2022/12/20 01:27:19;;;;;;;6.55;5.30;;;8.80;99.90;;;;;;5065782;28;20038;-37
2022/12/20 01:29:45;;;;;;;6.65;5.18;;;8.90;99.90;;;;;;5074460;28;20036;-38
2022/12/20 01:32:11;;;;;;;6.18;4.90;;;8.80;99.90;;;;;;5080896;28;20405;-37
2022/12/20 01:34:37;;;;;;;6.72;5.68;;;8.80;99.90;;;;;;5081935;28;20055;-38
2022/12/20 01:37:02;;;;;;;6.07;5.50;;;8.80;99.90;;;;;;5082865;28;20130;-38
2022/12/20 01:39:28;;;;;;;5.90;5.22;;;8.80;99.90;;;;;;5067437;28;20539;-38
2022/12/20 01:41:54;;;;;;;6.45;5.38;;;8.80;99.90;;;;;;5080503;28;20076;-38
2022/12/20 01:44:19;;;;;;;5.60;5.07;;;8.70;99.90;;;;;;5081460;28;20028;-37
2022/12/20 01:46:47;;;;;;;6.78;5.20;;;8.70;99.90;;;;;;5064167;28;20033;-38
2022/12/20 01:49:36;;;;;;;7.30;5.28;;;8.70;99.90;;;;;;5077464;28;20072;-38
2022/12/20 01:52:25;;;;;;;5.72;5.22;;;8.70;99.90;;;;;;5077623;28;20486;-38
2022/12/20 01:54:57;;;;;;;8.57;5.63;;;8.70;99.90;;;;;;5076000;28;20044;-38
2022/12/20 01:57:38;;;;;;;5.40;4.90;;;8.70;99.90;;;;;;5080845;28;20036;-37
2022/12/20 02:00:07;;;;;;;6.15;5.28;;;8.80;99.90;;;;;;5084310;28;20098;-37
2022/12/20 02:02:33;;;;;;;6.35;4.90;;;8.80;99.90;;;;;;5076092;28;20079;-37
2022/12/20 02:04:59;;;;;;;5.72;5.13;;;8.80;99.90;;;;;;5083910;28;20061;-37
2022/12/20 02:07:28;;;;;;;5.53;5.03;;;8.70;99.90;;;;;;5060997;28;20115;-38
2022/12/20 02:09:56;;;;;;;5.47;4.97;;;8.70;99.90;;;;;;5084939;28;20040;-38
2022/12/20 02:12:28;;;;;;;6.78;4.80;;;8.80;99.90;;;;;;5083943;28;20048;-38
2022/12/20 02:15:15;;;;;;;6.90;5.50;;;8.80;99.90;;;;;;5081596;28;20510;-38
2022/12/20 02:17:50;;;;;;;8.07;4.93;;;8.80;99.90;;;;;;5076479;28;20036;-37
2022/12/20 02:20:41;;;;;;;6.07;5.38;;;8.80;99.90;;;;;;5079852;28;20120;-38
2022/12/20 02:23:16;;;;;;;6.13;5.32;;;8.80;99.90;;;;;;5075726;28;20116;-37
2022/12/20 02:26:17;;;;;;;5.43;4.93;;;8.80;99.90;;;;;;5070145;28;20521;-38
2022/12/20 02:29:01;;;;;;;4.70;4.22;;;8.90;99.90;;;;;;5050987;28;20047;-38
2022/12/20 02:31:36;;;;;;;5.15;4.75;;;8.90;99.90;;;;;;5062452;28;20032;-38
2022/12/20 02:34:03;;;;;;;6.20;5.07;;;9.00;99.90;;;;;;5064246;28;20055;-38
2022/12/20 02:36:29;;;;;;;6.32;4.40;;;9.10;99.90;;;;;;5065010;28;20033;-38
2022/12/20 02:38:54;;;;;;;6.50;4.88;;;9.10;99.90;;;;;;5073937;28;20119;-37
2022/12/20 02:41:32;;;;;;;6.57;4.22;;;9.10;99.90;;;;;;5061749;28;20071;-38
2022/12/20 02:47:12;;;;;;;5.18;4.55;;;9.20;99.90;;;;;;5047611;28;20494;-37
2022/12/20 02:49:41;;;;;;;4.95;4.53;;;9.20;99.90;;;;;;5067064;28;20040;-38
2022/12/20 02:52:08;;;;;;;4.95;4.28;;;9.30;99.90;;;;;;5079234;28;20044;-37
2022/12/20 02:54:35;;;;;;;5.55;4.70;;;9.30;99.90;;;;;;5085841;28;20044;-36
2022/12/20 02:57:19;;;;;;;6.03;4.10;;;9.30;99.90;;;;;;5061876;28;20041;-37
2022/12/20 02:59:49;;;;;;;;;;;9.30;99.90;;;;;;5076012;28;20051;-37
2022/12/20 03:02:15;;;;;;;4.82;4.05;;;9.40;99.90;;;;;;5059844;28;20326;-37
2022/12/20 03:04:42;;;;;;;4.40;4.00;;;9.40;99.90;;;;;;5081564;28;20139;-36
2022/12/20 03:07:11;;;;;;;6.60;4.40;;;9.40;99.90;;;;;;5066956;28;20440;-37
2022/12/20 03:09:40;;;;;;;6.15;4.35;;;9.50;99.90;;;;;;5079155;28;20039;-37
2022/12/20 03:12:07;;;;;;;4.70;4.10;;;9.50;99.90;;;;;;5084412;28;20075;-36
2022/12/20 03:14:33;;;;;;;6.70;4.38;;;9.50;99.90;;;;;;5086598;28;20135;-37
2022/12/20 03:16:58;;;;;;;4.93;4.43;;;9.40;99.90;;;;;;5082222;28;20401;-37
2022/12/20 03:19:24;;;;;;;7.40;4.60;;;9.40;99.90;;;;;;5086389;28;20033;-37
2022/12/20 03:21:50;;;;;;;5.25;4.20;;;9.40;99.90;;;;;;5064829;28;20037;-37
2022/12/20 03:24:16;;;;;;;6.93;4.75;;;9.40;99.90;;;;;;5084593;28;20076;-37
2022/12/20 03:26:42;;;;;;;6.03;4.97;;;9.40;99.90;;;;;;5090587;28;20037;-37
2022/12/20 03:29:08;;;;;;;4.80;4.30;;;9.40;99.90;;;;;;5087633;28;20033;-36
2022/12/20 03:31:35;;;;;;;5.35;4.43;;;9.40;99.90;;;;;;5086398;28;20051;-37
2022/12/20 03:34:01;;;;;;;5.13;4.40;;;9.40;99.90;;;;;;5078914;28;20075;-36
2022/12/20 03:36:27;;;;;;;6.55;4.35;;;9.40;99.90;;;;;;5081492;28;20036;-37
2022/12/20 03:38:53;;;;;;;7.43;5.05;;;9.40;99.90;;;;;;5080783;28;20486;-36
2022/12/20 03:41:20;;;;;;;5.47;4.57;;;9.40;99.90;;;;;;5078351;28;20036;-36
2022/12/20 03:43:47;;;;;;;6.95;4.57;;;9.40;99.90;;;;;;5074052;28;20040;-37
2022/12/20 03:46:13;;;;;;;6.35;4.93;;;9.40;99.90;;;;;;5077590;28;20037;-37
2022/12/20 03:48:39;;;;;;;7.93;4.75;;;9.30;99.90;;;;;;5079743;28;20036;-37
2022/12/20 03:51:05;;;;;;;5.57;4.78;;;9.30;99.90;;;;;;5060357;28;20119;-37
2022/12/20 03:53:31;;;;;;;5.57;4.70;;;9.30;99.90;;;;;;5076282;28;20052;-36
2022/12/20 03:55:56;;;;;;;5.93;4.75;;;9.30;99.90;;;;;;5070187;28;20041;-36
2022/12/20 03:58:22;;;;;;;6.45;5.00;;;9.30;99.90;;;;;;5066924;28;20574;-36
2022/12/20 04:00:48;;;;;;;6.65;5.07;;;9.30;99.90;;;;;;5061952;28;20123;-37
2022/12/20 04:03:14;;;;;;;7.55;5.43;;;9.30;99.90;;;;;;5069190;28;20040;-37
2022/12/20 04:05:39;;;;;;;6.57;5.55;;;9.40;99.90;;;;;;5066933;28;20505;-37
2022/12/20 04:08:05;;;;;;;7.82;5.05;;;9.40;99.90;;;;;;5074519;28;20029;-37
2022/12/20 04:10:31;;;;;;;6.30;5.43;;;9.40;99.90;;;;;;5071702;28;20079;-37
2022/12/20 04:12:57;;;;;;;6.75;5.60;;;9.30;99.90;;;;;;5061377;28;20454;-37
2022/12/20 04:15:22;;;;;;;6.00;5.38;;;9.30;99.90;;;;;;5083636;28;20055;-37
2022/12/20 04:17:48;;;;;;;7.28;5.97;;;9.30;99.90;;;;;;5079807;28;20119;-37
2022/12/20 04:20:18;;;;;;;10.20;7.50;;;9.30;99.90;;;;;;5072390;28;20036;-38
2022/12/20 04:22:45;;;;;;;11.13;7.60;;;9.30;99.90;;;;;;5078186;28;20392;-37
2022/12/20 04:25:11;;;;;;;13.48;9.23;;;9.30;99.90;;;;;;5072488;28;20099;-37
2022/12/20 04:27:37;;;;;;;9.40;8.35;;;9.30;99.90;;;;;;5089026;28;20499;-37
2022/12/20 04:30:03;;;;;;;9.73;7.82;;;9.30;99.90;;;;;;5072601;28;20121;-37
2022/12/20 04:32:29;;;;;;;7.68;6.70;;;9.30;99.90;;;;;;5065497;28;20040;-37
2022/12/20 04:34:55;;;;;;;11.23;8.00;;;9.30;99.90;;;;;;5087310;28;20040;-36
2022/12/20 04:37:20;;;;;;;8.85;7.32;;;9.20;99.90;;;;;;5071959;28;20040;-37
2022/12/20 04:39:46;;;;;;;9.90;7.18;;;9.30;99.90;;;;;;5078966;28;20568;-37
2022/12/20 04:42:12;;;;;;;8.23;6.10;;;9.20;99.90;;;;;;5071748;28;20090;-38
2022/12/20 04:44:37;;;;;;;8.50;6.50;;;9.30;99.90;;;;;;5080288;28;20385;-37
2022/12/20 04:47:03;;;;;;;7.88;6.32;;;9.30;99.90;;;;;;5051734;28;20044;-38
2022/12/20 04:49:29;;;;;;;6.97;6.28;;;9.30;99.90;;;;;;5079052;28;20487;-37
2022/12/20 04:53:46;;;;;;;8.75;6.38;;;9.30;99.90;;;;;;5083654;28;20044;-37
2022/12/20 04:54:40;;;;;;;6.93;5.97;;;9.30;99.90;;;;;;5062533;28;20045;-37
2022/12/20 04:57:08;;;;;;;8.30;6.70;;;9.40;99.90;;;;;;5084544;28;20120;-37
2022/12/20 04:59:34;;;;;;;8.63;6.03;;;9.40;99.90;;;;;;5063675;28;20033;-37
2022/12/20 05:02:00;;;;;;;5.82;5.13;;;9.40;99.90;;;;;;5076511;28;20098;-37
2022/12/20 05:04:26;;;;;;;7.15;5.18;;;9.50;99.90;;;;;;5070701;28;20036;-37
2022/12/20 05:06:52;;;;;;;8.55;5.85;;;9.50;99.90;;;;;;5067972;28;20033;-37
2022/12/20 05:09:17;;;;;;;5.30;4.30;;;9.60;99.90;;;;;;5077215;28;20121;-37
2022/12/20 05:11:43;;;;;;;5.72;5.18;;;9.60;99.90;;;;;;5078734;28;20029;-38
2022/12/20 05:14:09;;;;;;;5.70;4.78;;;9.70;99.90;;;;;;5079978;28;20036;-37
2022/12/20 05:16:36;;;;;;;8.07;5.47;;;9.70;99.90;;;;;;5071770;28;20044;-39
2022/12/20 05:19:03;;;;;;;5.55;4.38;;;9.70;99.90;;;;;;5079980;28;20461;-37
2022/12/20 05:26:59;;;;;;;5.57;4.45;;;9.90;99.90;;;;;;5065851;28;20048;-36
2022/12/20 05:29:24;;;;;;;6.15;4.55;;;9.90;99.90;;;;;;5087590;28;20165;-36
2022/12/20 05:31:50;;;;;;;4.85;4.13;;;9.90;99.90;;;;;;5068285;28;20484;-36
2022/12/20 05:34:16;;;;;;;5.85;4.75;;;10.00;99.90;;;;;;5082865;28;20644;-37
2022/12/20 05:36:42;;;;;;;6.25;4.45;;;10.00;99.90;;;;;;5063607;28;20037;-37
2022/12/20 05:39:10;;;;;;;6.90;4.50;;;10.00;99.90;;;;;;5065289;28;20040;-35
2022/12/20 05:41:36;;;;;;;8.18;4.32;;;10.00;99.90;;;;;;5071256;28;20047;-36
2022/12/20 05:44:02;;;;;;;4.50;4.03;;;10.00;99.90;;;;;;5084442;28;20045;-36
2022/12/20 05:46:28;;;;;;;5.85;4.70;;;10.00;99.90;;;;;;5078339;28;20094;-37
2022/12/20 05:48:54;;;;;;;5.88;4.60;;;10.10;99.90;;;;;;5070393;28;20044;-36
2022/12/20 05:51:19;;;;;;;5.95;4.60;;;10.00;99.90;;;;;;5082209;28;20033;-35
2022/12/20 05:53:45;;;;;;;4.93;4.43;;;10.10;99.90;;;;;;5085187;28;20045;-36
2022/12/20 05:56:11;;;;;;;5.25;4.50;;;10.10;99.90;;;;;;5077879;28;20051;-36
2022/12/20 05:58:37;;;;;;;5.75;4.60;;;10.10;99.90;;;;;;5074945;28;20056;-36
2022/12/20 06:01:05;;;;;;;5.72;4.97;;;10.20;99.90;;;;;;5062508;28;20045;-36
2022/12/20 06:03:30;;;;;;;7.38;5.97;;;10.10;99.90;;;;;;5064498;28;20498;-36
2022/12/20 06:05:56;;;;;;;6.32;5.72;;;10.20;99.90;;;;;;5066525;28;20043;-36
2022/12/20 06:08:23;;;;;;;6.75;5.30;;;10.20;99.90;;;;;;5060289;28;20040;-36
2022/12/20 06:10:49;;;;;;;5.20;4.70;;;10.20;99.90;;;;;;5079930;28;20377;-36
2022/12/20 06:13:15;;;;;;;6.55;4.85;;;10.10;99.90;;;;;;5073724;28;20549;-36
2022/12/20 06:15:41;;;;;;;8.85;5.47;;;10.10;99.90;;;;;;5076259;28;20071;-36
2022/12/20 06:18:07;;;;;;;5.97;4.20;;;10.10;99.90;;;;;;5063317;28;20049;-37
2022/12/20 06:20:34;;;;;;;4.85;4.15;;;10.20;99.90;;;;;;5077890;28;20409;-36
2022/12/20 06:23:00;;;;;;;6.05;4.57;;;10.20;99.90;;;;;;5080561;28;20055;-36
2022/12/20 06:25:27;;;;;;;5.05;4.38;;;10.10;99.90;;;;;;5069679;28;20089;-36
2022/12/20 06:27:53;;;;;;;5.72;5.05;;;10.20;99.90;;;;;;5065836;28;20440;-36
2022/12/20 06:30:20;;;;;;;7.25;4.65;;;10.20;99.90;;;;;;5069348;28;20059;-36
2022/12/20 06:32:46;;;;;;;5.75;5.07;;;10.20;99.90;;;;;;5082487;28;20479;-36
2022/12/20 06:35:13;;;;;;;5.97;5.20;;;10.20;99.90;;;;;;5068355;28;20549;-36
2022/12/20 06:37:39;;;;;;;11.05;6.80;;;10.10;99.90;;;;;;5070141;28;20486;-37
2022/12/20 06:40:09;;;;;;;7.57;5.80;;;10.10;99.90;;;;;;5069067;28;20040;-36
2022/12/20 06:42:35;;;;;;;6.20;5.60;;;10.10;99.90;;;;;;5072852;28;20047;-36
2022/12/20 06:45:01;;;;;;;6.10;5.28;;;10.00;99.90;;;;;;5083313;28;20028;-36
2022/12/20 06:47:27;;;;;;;6.90;5.60;;;10.00;99.90;;;;;;5073799;28;20032;-36
2022/12/20 06:49:53;;;;;;;7.18;5.75;;;10.00;99.90;;;;;;5083912;28;20032;-36
2022/12/20 06:52:18;;;;;;;6.47;5.05;;;10.00;99.90;;;;;;5069561;28;20055;-36
2022/12/20 06:54:44;;;;;;;6.75;6.13;;;10.00;99.90;;;;;;5080877;28;20032;-36
2022/12/20 06:57:10;;;;;;;8.57;6.22;;;10.00;99.90;;;;;;5061748;28;20036;-36
2022/12/20 06:59:35;;;;;;;7.30;5.68;;;9.90;99.90;;;;;;5070412;28;20567;-36
2022/12/20 07:02:01;;;;;;;6.85;5.55;;;9.90;99.90;;;;;;5077525;28;20040;-36
2022/12/20 07:04:27;;;;;;;6.03;5.30;;;9.90;99.90;;;;;;5067450;28;20387;-36
2022/12/20 07:06:53;;;;;;;8.95;6.25;;;10.00;99.90;;;;;;5083162;28;20037;-36
2022/12/20 07:09:18;;;;;;;8.57;7.10;;;9.90;99.90;;;;;;5060574;28;20036;-36
2022/12/20 07:11:44;;;;;;;10.40;7.32;;;9.90;99.90;;;;;;5077828;28;20033;-35
2022/12/20 07:14:10;;;;;;;8.57;6.25;;;9.90;99.90;;;;;;5069115;28;20045;-36
2022/12/20 07:16:36;;;;;;;8.02;6.32;;;9.90;99.90;;;;;;5085630;28;20036;-36
2022/12/20 07:19:02;;;;;;;8.98;6.82;;;9.90;99.90;;;;;;5069018;28;20040;-36
2022/12/20 07:21:28;;;;;;;8.00;6.80;;;9.90;99.90;;;;;;5066705;28;20037;-38
2022/12/20 07:23:54;;;;;;;7.50;6.68;;;9.90;99.90;;;;;;5065492;28;20044;-37
2022/12/20 07:26:20;;;;;;;8.15;6.95;;;9.80;99.90;;;;;;5068779;28;20393;-37
2022/12/20 07:28:46;;;;;;;7.53;6.82;;;9.80;99.90;;;;;;5085672;28;20032;-37
2022/12/20 07:31:12;;;;;;;8.15;7.28;;;9.90;99.90;;;;;;5068719;28;20040;-37
2022/12/20 07:33:38;;;;;;;9.18;7.55;;;9.90;99.90;;;;;;5066725;28;20383;-38
2022/12/20 07:39:45;;;;;;;8.48;7.57;;;9.80;99.90;;;;;;5072168;28;20083;-37
2022/12/20 07:42:11;;;;;;;9.50;6.80;;;9.90;99.90;;;;;;5074547;28;20049;-37
2022/12/20 07:44:36;;;;;;;8.73;7.78;;;9.80;99.90;;;;;;5065097;28;20509;-37
2022/12/20 07:47:02;;;;;;;8.05;7.25;;;9.80;99.90;;;;;;5066653;28;20040;-37
2022/12/20 07:49:28;;;;;;;8.27;6.88;;;9.80;99.90;;;;;;5058208;28;20045;-37
2022/12/20 07:51:57;;;;;;;7.35;6.22;;;9.80;99.90;;;;;;5076879;28;20040;-37
2022/12/20 07:54:34;;;;;;;7.80;6.85;;;9.80;99.90;;;;;;5057524;28;20106;-37
2022/12/20 07:57:04;;;;;;;7.57;6.45;;;9.80;99.90;;;;;;5067988;28;20151;-37
2022/12/20 07:59:40;;;;;;;7.55;5.97;;;9.80;99.90;;;;;;5079486;28;20041;-36
2022/12/20 08:02:34;;;;;;;7.88;6.07;;;9.80;99.90;;;;;;5077896;28;20040;-36
2022/12/20 08:05:00;;;;;;;7.13;5.88;;;9.90;99.90;;;;;;5067853;28;20039;-37
2022/12/20 08:07:28;;;;;;;8.25;6.65;;;9.90;99.90;;;;;;5066848;28;20045;-37
2022/12/20 08:09:54;;;;;;;7.38;6.45;;;9.90;99.90;;;;;;5080670;28;20059;-37
2022/12/20 08:12:21;;;;;;;7.05;5.43;;;10.00;99.90;;;;;;5080737;28;20051;-37
2022/12/20 08:14:46;;;;;;;9.10;5.95;;;10.00;99.90;;;;;;5084166;28;20512;-37
2022/12/20 08:17:12;;;;;;;9.48;5.95;;;10.00;99.90;;;;;;5073305;28;20044;-37
2022/12/20 08:19:38;;;;;;;7.03;5.45;;;10.00;99.90;;;;;;5066564;28;20406;-36
2022/12/20 08:22:05;;;;;;;6.80;5.65;;;10.10;99.90;;;;;;5079710;28;20075;-37
2022/12/20 08:24:32;;;;;;;7.43;5.40;;;10.00;99.90;;;;;;5072071;28;20094;-37
2022/12/20 08:27:01;;;;;;;7.22;5.45;;;10.00;99.90;;;;;;5082196;28;20039;-36
2022/12/20 08:29:27;;;;;;;7.75;6.05;;;10.10;99.90;;;;;;5068395;28;20035;-37
2022/12/20 08:31:52;;;;;;;5.90;4.72;;;10.00;99.90;;;;;;5085914;28;20111;-36
2022/12/20 08:34:18;;;;;;;7.55;5.22;;;10.10;99.90;;;;;;5071997;28;20036;-37
2022/12/20 08:36:44;;;;;;;6.28;5.10;;;10.10;99.90;;;;;;5070561;28;20087;-36
2022/12/20 08:39:10;;;;;;;5.38;4.80;;;10.10;99.90;;;;;;5070101;28;20037;-39
2022/12/20 08:41:36;;;;;;;7.40;4.40;;;10.10;99.90;;;;;;5067560;28;20071;-36
2022/12/20 08:44:03;;;;;;;6.68;5.05;;;10.10;99.90;;;;;;5069833;28;20048;-37
2022/12/20 08:46:29;;;;;;;7.20;6.13;;;10.10;99.90;;;;;;5068492;28;20037;-37
2022/12/20 08:48:54;;;;;;;6.65;5.93;;;10.00;99.90;;;;;;5085179;28;20029;-37
2022/12/20 08:51:20;;;;;;;8.80;5.43;;;10.00;99.90;;;;;;5087949;28;20120;-36
2022/12/20 08:53:46;;;;;;;9.48;5.00;;;10.00;99.90;;;;;;5083611;28;20036;-37
2022/12/20 08:56:16;;;;;;;5.97;4.30;;;10.10;99.90;;;;;;5071177;28;20554;-37
2022/12/20 09:02:08;;;;;;;6.63;5.15;;;10.10;99.90;;;;;;5055472;22;20044;-34
2022/12/20 09:04:34;;;;;;;6.25;5.03;;;10.10;99.90;;;;;;5051872;28;20476;-35
2022/12/20 09:07:00;;;;;;;6.40;5.32;;;10.20;99.90;;;;;;5067201;28;20056;-35
2022/12/20 09:09:26;;;;;;;7.65;5.38;;;10.20;99.90;;;;;;5051683;28;20029;-35
2022/12/20 09:11:52;;;;;;;6.28;5.68;;;10.20;99.90;;;;;;5031424;28;20047;-34
2022/12/20 09:14:18;;;;;;;6.70;5.47;;;10.20;99.90;;;;;;5040061;28;20032;-35
2022/12/20 09:16:44;;;;;;;9.07;5.03;;;10.10;99.90;;;;;;5010473;28;20073;-35
2022/12/20 09:19:12;;;;;;;6.85;5.53;;;10.20;99.90;;;;;;5031094;28;20041;-35
2022/12/20 09:21:39;;;;;;;6.07;5.47;;;10.20;99.90;;;;;;5022409;28;20038;-34
2022/12/20 09:24:05;;;;;;;7.05;5.60;;;10.20;99.90;;;;;;5033522;28;20486;-34
2022/12/20 09:26:31;;;;;;;6.80;5.72;;;10.10;99.90;;;;;;5027980;28;20163;-34
2022/12/20 09:28:57;;;;;;;6.03;5.43;;;10.10;99.90;;;;;;5034324;28;20036;-35
2022/12/20 09:31:24;;;;;;;6.10;5.47;;;10.10;99.90;;;;;;5039847;28;20029;-35
2022/12/20 09:33:56;;;;;;;8.63;5.70;;;10.10;99.90;;;;;;5033222;28;20045;-35
2022/12/20 09:36:23;;;;;;;8.00;6.03;;;10.10;99.90;;;;;;5034384;28;20033;-35
2022/12/20 09:38:50;;;;;;;10.00;5.88;;;10.10;99.90;;;;;;5031976;28;20065;-35
2022/12/20 09:41:38;;;;;;;6.20;5.60;;;10.00;99.90;;;;;;5034961;28;20054;-35
2022/12/20 09:44:19;;;;;;;7.25;6.25;;;10.00;99.90;;;;;;5056250;28;20120;-35
2022/12/20 09:46:54;;;;;;;7.18;5.47;;;10.00;99.90;;;;;;5014905;28;20088;-35
2022/12/20 09:49:24;;;;;;;10.82;7.40;;;10.00;99.90;;;;;;5032655;28;20036;-35
2022/12/20 09:52:14;;;;;;;8.68;5.88;;;10.00;99.90;;;;;;5032535;28;20124;-35
2022/12/20 09:55:11;;;;;;;6.03;5.18;;;10.10;99.90;;;;;;5007864;28;20471;-35
2022/12/20 10:01:23;;;;;;;7.82;5.40;;;10.00;99.90;;;;;;5022703;28;20068;-37
2022/12/20 10:03:52;;;;;;;8.57;6.40;;;10.00;99.90;;;;;;5030086;28;20401;-37
2022/12/20 10:06:49;;;;;;;8.95;6.80;;;10.00;99.90;;;;;;5010569;28;20034;-37
2022/12/20 10:09:29;;;;;;;6.60;5.55;;;10.00;99.90;;;;;;4987997;28;20097;-37
2022/12/20 10:12:17;;;;;;;8.25;5.47;;;9.90;99.90;;;;;;5026800;28;20037;-38
2022/12/20 10:15:18;;;;;;;8.25;5.47;;;9.90;99.90;;;;;;5028981;28;20026;-37
2022/12/20 10:18:16;;;;;;;11.05;5.90;;;9.90;99.90;;;;;;5021520;28;20168;-38
2022/12/20 10:21:02;;;;;;;7.63;5.18;;;9.90;99.90;;;;;;5030022;28;20033;-37
2022/12/20 10:24:00;;;;;;;9.68;6.63;;;9.90;99.90;;;;;;5028292;28;20110;-36
2022/12/20 10:26:28;;;;;;;9.07;6.40;;;9.80;99.90;;;;;;5034590;28;20030;-37
2022/12/20 10:28:53;;;;;;;7.38;5.53;;;9.80;99.90;;;;;;5030707;28;20037;-37
2022/12/20 10:31:19;;;;;;;9.60;5.55;;;9.80;99.90;;;;;;5033336;28;20030;-37
2022/12/20 10:33:45;;;;;;;6.30;5.20;;;9.80;99.90;;;;;;5031220;28;20037;-37
2022/12/20 10:36:32;;;;;;;7.70;6.75;;;9.80;99.90;;;;;;5032903;28;20491;-37
2022/12/20 10:39:09;;;;;;;7.72;5.70;;;9.80;99.90;;;;;;5031299;28;20041;-38
2022/12/20 10:41:44;;;;;;;9.77;6.15;;;9.80;99.90;;;;;;5049626;28;20041;-38
2022/12/20 10:44:26;;;;;;;7.93;5.07;;;9.80;99.90;;;;;;5028285;28;20560;-37
2022/12/20 10:46:58;;;;;;;7.50;5.63;;;9.80;99.90;;;;;;5030358;28;20042;-38
2022/12/20 10:49:33;;;;;;;9.25;5.53;;;9.80;99.90;;;;;;5030434;28;20036;-37
2022/12/20 10:52:08;;;;;;;9.32;5.90;;;9.80;99.90;;;;;;5031731;28;20044;-38
2022/12/20 10:54:40;;;;;;;6.97;5.22;;;9.80;99.90;;;;;;5031616;28;20307;-37
2022/12/20 10:57:15;;;;;;;8.73;5.53;;;9.80;99.90;;;;;;5029275;28;20038;-39
2022/12/20 10:59:53;;;;;;;7.70;6.47;;;9.80;99.90;;;;;;5029689;28;20478;-39
2022/12/20 11:02:35;;;;;;;7.05;5.43;;;9.90;99.90;;;;;;5032538;28;20040;-38
2022/12/20 11:05:05;;;;;;;7.57;6.20;;;9.90;99.90;;;;;;5044871;28;20076;-40
2022/12/20 11:07:32;;;;;;;9.55;6.13;;;9.90;99.90;;;;;;5033715;28;20092;-39
2022/12/20 11:10:01;;;;;;;6.70;5.70;;;10.00;99.90;;;;;;5029887;28;20041;-39
2022/12/20 11:12:27;;;;;;;7.40;5.60;;;10.00;99.90;;;;;;5029775;28;20572;-40
2022/12/20 11:15:20;;;;;;;8.98;5.50;;;10.00;99.90;;;;;;5029257;28;20041;-39
2022/12/20 11:17:50;;;;;;;6.85;5.20;;;10.10;99.90;;;;;;5029561;28;20398;-39
2022/12/20 11:20:27;;;;;;;10.00;6.22;;;10.10;99.90;;;;;;5028973;28;20034;-39
2022/12/20 11:23:22;;;;;;;8.48;5.93;;;10.10;99.90;;;;;;5028648;28;20041;-39
2022/12/20 11:26:00;;;;;;;10.18;5.95;;;10.10;99.90;;;;;;5028139;28;20498;-39
2022/12/20 11:29:03;;;;;;;6.60;5.80;;;10.10;99.90;;;;;;5025414;28;20121;-39
2022/12/20 11:31:47;;;;;;;9.93;6.85;;;10.10;99.90;;;;;;5014391;28;20534;-39
2022/12/20 11:34:19;;;;;;;7.25;5.45;;;10.10;99.90;;;;;;5026303;28;20418;-39
2022/12/20 11:36:53;;;;;;;8.35;5.90;;;10.20;99.90;;;;;;5017828;28;20081;-40
2022/12/20 11:39:38;;;;;;;7.07;5.60;;;10.10;99.90;;;;;;5024666;28;20088;-40
2022/12/20 11:42:23;;;;;;;9.15;5.75;;;10.10;99.90;;;;;;5030352;28;20107;-40
2022/12/20 11:44:57;;;;;;;7.30;5.63;;;10.10;99.90;;;;;;5028367;28;20111;-39
2022/12/20 11:47:32;;;;;;;8.65;5.47;;;10.10;99.90;;;;;;5034229;28;20038;-39
2022/12/20 11:50:04;;;;;;;10.02;5.53;;;10.10;99.90;;;;;;5032463;28;20076;-40
2022/12/20 11:52:50;;;;;;;7.95;5.70;;;10.10;99.90;;;;;;5033210;28;20033;-40
2022/12/20 11:55:30;;;;;;;7.97;6.15;;;10.10;99.90;;;;;;5033845;28;20073;-39
2022/12/20 11:58:03;;;;;;;8.52;5.45;;;10.10;99.90;;;;;;5033523;28;20073;-40
2022/12/20 12:00:30;;;;;;;8.82;6.10;;;10.10;99.90;;;;;;5007223;28;20573;-40
2022/12/20 12:03:00;;;;;;;7.70;6.20;;;10.10;99.90;;;;;;5032363;28;20407;-39
2022/12/20 12:05:55;;;;;;;7.30;5.57;;;10.10;99.90;;;;;;5033312;28;20042;-40
2022/12/20 12:08:45;;;;;;;8.27;6.55;;;10.00;99.90;;;;;;5030727;28;20060;-40
2022/12/20 12:11:25;;;;;;;7.65;6.88;;;10.00;99.90;;;;;;5025973;28;20053;-40
2022/12/20 12:13:52;;;;;;;6.63;5.97;;;10.00;99.90;;;;;;5030933;28;20121;-40
2022/12/20 12:16:31;;;;;;;7.57;6.60;;;10.00;99.90;;;;;;5033484;28;20498;-40
2022/12/20 12:19:00;;;;;;;7.38;6.57;;;10.00;99.90;;;;;;5032456;28;20041;-41
2022/12/20 12:21:33;;;;;;;11.02;6.45;;;10.00;99.90;;;;;;5031574;28;20095;-40
2022/12/20 12:24:22;;;;;;;8.07;6.50;;;10.00;99.90;;;;;;5027317;28;20037;-40
2022/12/20 12:26:48;;;;;;;9.48;6.45;;;10.00;99.90;;;;;;5031369;28;20053;-40
2022/12/20 12:29:16;;;;;;;8.00;6.85;;;10.00;99.90;;;;;;5030709;28;20422;-41
2022/12/20 12:32:26;;;;;;;10.02;8.80;;;10.00;99.90;;;;;;5027863;28;20038;-40
2022/12/20 12:35:13;;;;;;;8.23;7.30;;;10.00;99.90;;;;;;5028968;28;20563;-40
2022/12/20 12:37:51;;;;;;;8.57;6.63;;;10.00;99.90;;;;;;5033257;28;20487;-39
2022/12/20 12:40:45;;;;;;;7.68;6.78;;;10.00;99.90;;;;;;5031727;28;20034;-39
2022/12/20 12:43:26;;;;;;;8.38;6.47;;;10.00;99.90;;;;;;5033081;28;20037;-40
2022/12/20 12:45:57;;;;;;;10.95;7.32;;;10.00;99.90;;;;;;5018596;28;20136;-41
2022/12/20 12:48:43;;;;;;;8.88;6.75;;;10.00;99.90;;;;;;5031853;28;20045;-40
2022/12/20 12:51:11;;;;;;;7.57;6.75;;;10.00;99.90;;;;;;5044776;28;20045;-39
2022/12/20 12:53:49;;;;;;;9.93;7.28;;;10.00;99.90;;;;;;5030208;28;20056;-39
2022/12/20 12:56:27;;;;;;;10.10;7.72;;;10.10;99.90;;;;;;5029400;28;20045;-39
2022/12/20 12:59:08;;;;;;;9.75;7.03;;;10.00;99.90;;;;;;5012089;28;20095;-38
2022/12/20 13:01:52;;;;;;;8.93;6.47;;;10.00;99.90;;;;;;5033858;28;20041;-36
2022/12/20 13:04:18;;;;;;;13.25;7.47;;;10.10;99.90;;;;;;5033337;28;20034;-36
2022/12/20 13:06:47;;;;;;;10.98;7.47;;;10.10;99.90;;;;;;5039796;28;20510;-36
2022/12/20 13:09:24;;;;;;;9.13;7.90;;;10.00;99.90;;;;;;5053403;28;20401;-36
2022/12/20 13:11:54;;;;;;;9.20;8.18;;;10.00;99.90;;;;;;5053400;28;20088;-36
2022/12/20 13:14:21;;;;;;;9.95;8.95;;;10.00;99.90;;;;;;5052643;28;20040;-36
2022/12/20 13:16:48;;;;;;;9.38;8.25;;;10.10;99.90;;;;;;5034582;28;20105;-36
2022/12/20 13:19:16;;;;;;;10.93;9.00;;;10.10;99.90;;;;;;5052495;28;20037;-37
2022/12/20 13:21:47;;;;;;;10.38;8.82;;;10.10;99.90;;;;;;5051474;28;20123;-36
2022/12/20 13:24:51;;;;;;;10.68;9.20;;;10.10;99.90;;;;;;5051376;28;20094;-39
2022/12/20 13:27:35;;;;;;;;;;;10.10;99.90;;;;;;5030676;28;20053;-38
2022/12/20 13:30:10;;;;;;;13.70;9.23;;;10.10;99.90;;;;;;5047720;28;20358;-38